createdAt,value
2024-01-18T00:00:35.628Z,31.50
2024-01-18T00:03:03.939Z,32.60
2024-01-18T00:05:30.880Z,28.08
2024-01-18T00:07:57.911Z,29.65
2024-01-18T00:10:28.402Z,32.00
2024-01-18T00:12:55.945Z,25.77
2024-01-18T00:15:23.424Z,37.88
2024-01-18T00:17:50.870Z,29.17
2024-01-18T00:20:18.072Z,30.00
2024-01-18T00:22:45.059Z,28.90
2024-01-18T00:25:12.112Z,25.33
2024-01-18T00:27:39.125Z,33.25
2024-01-18T00:30:06.706Z,31.20
2024-01-18T00:32:33.948Z,23.48
2024-01-18T00:35:01.069Z,26.83
2024-01-18T00:37:28.131Z,28.90
2024-01-18T00:39:55.121Z,27.17
2024-01-18T00:42:22.319Z,25.88
2024-01-18T00:44:49.412Z,32.25
2024-01-18T00:47:16.651Z,26.95
2024-01-18T00:49:44.994Z,26.23
2024-01-18T00:52:12.128Z,28.50
2024-01-18T00:54:39.142Z,31.77
2024-01-18T00:57:06.360Z,31.23
2024-01-18T00:59:33.698Z,27.83
2024-01-18T01:02:00.695Z,20.35
2024-01-18T01:04:27.584Z,22.58
2024-01-18T01:06:54.632Z,26.30
2024-01-18T01:09:21.665Z,27.70
2024-01-18T01:11:48.559Z,26.13
2024-01-18T01:14:15.618Z,29.92
2024-01-18T01:16:42.667Z,23.08
2024-01-18T01:19:09.663Z,22.63
2024-01-18T01:21:38.377Z,23.85
2024-01-18T01:24:05.449Z,24.80
2024-01-18T01:26:32.476Z,36.63
2024-01-18T01:28:59.483Z,30.80
2024-01-18T01:31:26.678Z,34.95
2024-01-18T01:33:53.761Z,26.75
2024-01-18T01:36:20.901Z,37.22
2024-01-18T01:38:47.973Z,28.13
2024-01-18T01:41:15.332Z,39.10
2024-01-18T01:44:01.719Z,32.80
2024-01-18T01:46:29.699Z,38.10
2024-01-18T01:49:02.509Z,29.60
2024-01-18T01:51:38.359Z,29.13
2024-01-18T01:54:06.381Z,27.98
2024-01-18T01:56:35.957Z,35.80
2024-01-18T01:59:05.000Z,39.78
2024-01-18T02:01:32.235Z,31.88
2024-01-18T02:03:59.526Z,31.08
2024-01-18T02:06:27.042Z,66.20
2024-01-18T02:08:54.157Z,36.40
2024-01-18T02:11:21.671Z,28.75
2024-01-18T02:13:50.111Z,34.13
2024-01-18T02:16:17.395Z,26.33
2024-01-18T02:18:44.401Z,31.20
2024-01-18T02:21:11.664Z,43.88
2024-01-18T02:23:40.175Z,40.63
2024-01-18T02:26:07.428Z,34.67
2024-01-18T02:28:34.349Z,33.40
2024-01-18T02:31:01.569Z,32.75
2024-01-18T02:33:28.760Z,40.60
2024-01-18T02:35:56.002Z,39.67
2024-01-18T02:38:23.656Z,32.75
2024-01-18T02:40:50.649Z,31.20
2024-01-18T02:43:17.632Z,45.45
2024-01-18T02:45:44.837Z,34.63
2024-01-18T02:48:11.992Z,41.35
2024-01-18T02:50:43.168Z,39.42
2024-01-18T02:55:36.914Z,24.80
2024-01-18T02:58:04.127Z,34.90
2024-01-18T03:00:31.149Z,36.03
2024-01-18T03:02:58.168Z,41.97
2024-01-18T03:05:25.203Z,43.85
2024-01-18T03:07:52.203Z,46.80
2024-01-18T03:10:19.188Z,50.20
2024-01-18T03:12:46.168Z,53.35
2024-01-18T03:15:13.491Z,43.30
2024-01-18T03:17:40.569Z,46.75
2024-01-18T03:20:08.694Z,41.15
2024-01-18T03:22:38.662Z,41.28
2024-01-18T03:25:06.239Z,45.33
2024-01-18T03:27:33.324Z,51.30
2024-01-18T03:30:00.552Z,62.30
2024-01-18T03:32:27.659Z,57.53
2024-01-18T03:34:54.745Z,57.58
2024-01-18T03:37:21.768Z,58.67
2024-01-18T03:39:48.780Z,52.63
2024-01-18T03:42:15.800Z,58.33
2024-01-18T03:44:42.756Z,53.40
2024-01-18T03:47:09.720Z,59.65
2024-01-18T03:49:36.871Z,56.13
2024-01-18T03:52:03.963Z,44.05
2024-01-18T03:54:31.005Z,59.97
2024-01-18T03:56:58.132Z,62.92
2024-01-18T03:59:25.408Z,60.08
2024-01-18T04:01:52.293Z,66.30
2024-01-18T04:04:19.378Z,62.95
2024-01-18T04:06:46.467Z,65.30
2024-01-18T04:09:13.531Z,65.75
2024-01-18T04:11:40.607Z,60.65
2024-01-18T04:14:07.628Z,68.30
2024-01-18T04:16:35.551Z,58.63
2024-01-18T04:19:02.704Z,47.85
2024-01-18T04:21:30.272Z,66.40
2024-01-18T04:23:57.549Z,52.17
2024-01-18T04:26:26.295Z,69.88
2024-01-18T04:28:53.765Z,50.33
2024-01-18T04:31:20.694Z,57.55
2024-01-18T04:33:48.484Z,53.05
2024-01-18T04:36:15.495Z,51.92
2024-01-18T04:38:42.913Z,54.05
2024-01-18T04:41:09.966Z,55.28
2024-01-18T04:43:36.959Z,55.60
2024-01-18T04:46:05.505Z,51.05
2024-01-18T04:48:33.078Z,48.78
2024-01-18T04:51:00.255Z,54.60
2024-01-18T04:53:27.278Z,47.47
2024-01-18T04:55:55.066Z,59.63
2024-01-18T04:58:22.791Z,39.28
2024-01-18T05:00:49.823Z,46.17
2024-01-18T05:03:17.083Z,49.72
2024-01-18T05:05:44.193Z,72.63
2024-01-18T05:08:11.166Z,48.53
2024-01-18T05:10:38.114Z,50.60
2024-01-18T05:13:05.353Z,52.60
2024-01-18T05:15:32.422Z,50.58
2024-01-18T05:18:02.114Z,61.83
2024-01-18T05:20:29.469Z,58.63
2024-01-18T05:22:56.485Z,50.40
2024-01-18T05:25:23.460Z,60.00
2024-01-18T05:27:50.654Z,54.65
2024-01-18T05:30:17.698Z,78.35
2024-01-18T05:32:45.030Z,71.82
2024-01-18T05:35:11.964Z,74.53
2024-01-18T05:37:38.850Z,71.63
2024-01-18T05:40:08.062Z,73.57
2024-01-18T05:42:35.025Z,60.60
2024-01-18T05:45:02.436Z,71.43
2024-01-18T05:47:29.675Z,86.47
2024-01-18T05:49:57.215Z,71.47
2024-01-18T05:52:24.220Z,67.15
2024-01-18T05:54:51.193Z,90.60
2024-01-18T05:57:18.064Z,79.25
2024-01-18T05:59:44.977Z,98.70
2024-01-18T06:02:11.967Z,92.85
2024-01-18T06:04:39.022Z,102.70
2024-01-18T06:07:06.164Z,138.23
2024-01-18T06:09:33.335Z,184.77
2024-01-18T06:12:00.409Z,186.20
2024-01-18T06:14:27.421Z,111.03
2024-01-18T06:16:54.563Z,141.25
2024-01-18T06:19:21.674Z,141.85
2024-01-18T06:21:48.782Z,203.68
2024-01-18T06:24:16.202Z,144.63
2024-01-18T06:26:43.256Z,154.52
2024-01-18T06:29:11.745Z,253.35
2024-01-18T06:31:39.053Z,250.65
2024-01-18T06:34:06.594Z,199.45
2024-01-18T06:36:33.699Z,121.68
2024-01-18T06:39:01.341Z,104.43
2024-01-18T06:41:28.377Z,130.07
2024-01-18T06:43:55.505Z,143.55
2024-01-18T06:46:23.886Z,109.18
2024-01-18T06:48:58.589Z,143.43
2024-01-18T06:51:25.824Z,107.78
2024-01-18T06:53:53.094Z,92.85
2024-01-18T06:56:20.016Z,120.82
2024-01-18T06:58:47.059Z,111.55
2024-01-18T07:01:14.545Z,66.45
2024-01-18T07:03:43.957Z,158.25
2024-01-18T07:06:11.349Z,101.90
2024-01-18T07:08:38.833Z,135.95
2024-01-18T07:11:06.253Z,128.18
2024-01-18T07:13:33.381Z,55.63
2024-01-18T07:16:00.687Z,37.60
2024-01-18T07:18:28.267Z,35.55
2024-01-18T07:20:55.474Z,39.20
2024-01-18T07:23:22.558Z,37.05
2024-01-18T07:25:49.655Z,45.10
2024-01-18T07:28:16.683Z,44.35
2024-01-18T07:30:43.960Z,63.88
2024-01-18T07:33:11.194Z,37.17
2024-01-18T07:35:38.418Z,46.28
2024-01-18T07:38:05.732Z,30.88
2024-01-18T07:40:32.716Z,49.95
2024-01-18T07:42:59.755Z,51.05
2024-01-18T07:45:27.072Z,38.38
2024-01-18T07:47:54.872Z,41.35
2024-01-18T07:50:33.573Z,35.08
2024-01-18T07:53:03.584Z,30.98
2024-01-18T07:55:30.861Z,40.80
2024-01-18T07:57:58.140Z,41.85
2024-01-18T08:00:25.926Z,38.20
2024-01-18T08:02:53.014Z,38.22
2024-01-18T08:05:20.063Z,40.35
2024-01-18T08:07:47.054Z,46.22
2024-01-18T08:10:14.104Z,49.65
2024-01-18T08:12:46.567Z,46.45
2024-01-18T08:15:14.476Z,32.20
2024-01-18T08:17:45.164Z,36.88
2024-01-18T08:20:16.023Z,28.55
2024-01-18T08:25:14.102Z,35.17
2024-01-18T08:27:43.415Z,30.27
2024-01-18T08:30:11.707Z,42.63
2024-01-18T08:32:38.999Z,41.95
2024-01-18T08:35:09.615Z,47.45
2024-01-18T08:37:37.524Z,39.92
2024-01-18T08:40:05.246Z,40.65
2024-01-18T08:42:32.372Z,45.80
2024-01-18T08:44:59.392Z,47.30
2024-01-18T08:47:28.115Z,42.60
2024-01-18T08:49:55.441Z,48.13
2024-01-18T08:52:24.077Z,48.33
2024-01-18T08:54:53.139Z,45.38
2024-01-18T08:57:20.904Z,47.72
2024-01-18T08:59:48.011Z,49.15
2024-01-18T09:02:23.047Z,51.92
2024-01-18T09:04:52.277Z,50.70
2024-01-18T09:07:19.975Z,45.63
2024-01-18T09:09:47.478Z,47.60
2024-01-18T09:12:14.990Z,53.88
2024-01-18T09:14:42.082Z,42.58
2024-01-18T09:17:11.491Z,51.50
2024-01-18T09:19:40.223Z,53.30
2024-01-18T09:22:07.401Z,54.60
2024-01-18T09:24:34.552Z,64.32
2024-01-18T09:27:01.572Z,53.13
2024-01-18T09:29:28.568Z,54.65
2024-01-18T09:31:58.377Z,56.80
2024-01-18T09:34:25.452Z,61.40
2024-01-18T09:36:52.746Z,55.10
2024-01-18T09:39:19.990Z,50.38
2024-01-18T09:41:54.528Z,55.63
2024-01-18T09:44:27.228Z,55.10
2024-01-18T09:46:55.780Z,45.78
2024-01-18T09:49:23.046Z,48.10
2024-01-18T09:51:51.922Z,45.65
2024-01-18T09:54:19.673Z,44.10
2024-01-18T09:56:47.744Z,38.35
2024-01-18T09:59:18.201Z,39.42
2024-01-18T10:01:46.412Z,44.33
2024-01-18T10:04:14.977Z,37.70
2024-01-18T10:06:42.984Z,33.83
2024-01-18T10:09:12.110Z,36.20
2024-01-18T10:11:39.125Z,27.77
2024-01-18T10:14:06.063Z,22.38
2024-01-18T10:16:37.362Z,28.85
2024-01-18T10:21:37.570Z,20.05
2024-01-18T10:24:05.186Z,21.50
2024-01-18T10:26:33.049Z,20.58
2024-01-18T10:29:02.001Z,20.10
2024-01-18T10:31:32.797Z,21.07
2024-01-18T10:34:00.179Z,18.75
2024-01-18T10:36:27.630Z,18.80
2024-01-18T10:38:55.093Z,15.23
2024-01-18T10:41:22.236Z,16.55
2024-01-18T10:43:49.896Z,15.75
2024-01-18T10:46:18.539Z,15.63
2024-01-18T10:48:47.739Z,15.55
2024-01-18T10:51:15.323Z,15.95
2024-01-18T10:53:44.889Z,15.13
2024-01-18T10:56:13.770Z,13.90
2024-01-18T10:58:42.624Z,20.25
2024-01-18T11:01:09.853Z,17.52
2024-01-18T11:03:38.250Z,15.65
2024-01-18T11:06:11.348Z,13.52
2024-01-18T11:08:41.534Z,14.93
2024-01-18T11:11:09.424Z,20.63
2024-01-18T11:13:36.927Z,17.42
2024-01-18T11:16:05.502Z,19.13
2024-01-18T11:18:35.754Z,14.02
2024-01-18T11:21:07.990Z,12.15
2024-01-18T11:23:37.007Z,18.25
2024-01-18T11:26:06.163Z,15.27
2024-01-18T11:28:34.190Z,18.10
2024-01-18T11:31:01.968Z,16.27
2024-01-18T11:33:29.796Z,17.10
2024-01-18T11:36:01.738Z,17.90
2024-01-18T11:38:31.138Z,15.23
2024-01-18T11:40:59.020Z,15.93
2024-01-18T11:43:46.265Z,16.67
2024-01-18T11:46:15.511Z,15.65
2024-01-18T11:48:44.174Z,15.65
2024-01-18T11:51:11.465Z,16.95
2024-01-18T11:53:39.402Z,16.48
2024-01-18T11:56:08.461Z,16.80
2024-01-18T11:58:35.506Z,17.27
2024-01-18T12:01:02.716Z,16.83
2024-01-18T12:03:30.032Z,18.58
2024-01-18T12:05:57.051Z,16.23
2024-01-18T12:08:24.256Z,16.65
2024-01-18T12:10:51.501Z,16.02
2024-01-18T12:13:19.257Z,16.27
2024-01-18T12:15:47.386Z,16.50
2024-01-18T12:18:14.614Z,16.38
2024-01-18T12:20:43.273Z,16.15
2024-01-18T12:23:17.283Z,14.73
2024-01-18T12:25:45.642Z,15.52
2024-01-18T12:28:12.723Z,15.13
2024-01-18T12:30:44.814Z,16.00
2024-01-18T12:33:14.088Z,16.00
2024-01-18T12:35:41.176Z,15.20
2024-01-18T12:38:08.527Z,14.57
2024-01-18T12:40:35.886Z,15.23
2024-01-18T12:43:04.361Z,16.42
2024-01-18T12:45:34.873Z,15.15
2024-01-18T12:48:03.916Z,13.67
2024-01-18T12:50:30.933Z,13.60
2024-01-18T12:52:59.548Z,14.77
2024-01-18T12:55:28.400Z,13.02
2024-01-18T12:57:59.497Z,13.80
2024-01-18T13:00:26.599Z,14.50
2024-01-18T13:02:53.859Z,14.02
2024-01-18T13:05:20.861Z,15.60
2024-01-18T13:07:50.007Z,14.52
2024-01-18T13:10:17.051Z,14.70
2024-01-18T13:12:46.357Z,15.30
2024-01-18T13:15:13.412Z,14.00
2024-01-18T13:17:42.688Z,14.48
2024-01-18T13:20:12.631Z,10.57
2024-01-18T13:22:40.004Z,9.90
2024-01-18T13:25:07.233Z,9.38
2024-01-18T13:27:34.360Z,8.90
2024-01-18T13:30:01.510Z,8.73
2024-01-18T13:32:28.694Z,10.02
2024-01-18T13:34:55.826Z,8.30
2024-01-18T13:37:30.557Z,9.27
2024-01-18T13:40:01.812Z,9.52
2024-01-18T13:42:28.958Z,10.13
2024-01-18T13:44:56.071Z,11.43
2024-01-18T13:47:23.145Z,9.27
2024-01-18T13:49:51.887Z,10.23
2024-01-18T13:52:21.458Z,10.60
2024-01-18T13:54:48.627Z,12.30
2024-01-18T13:57:15.640Z,12.80
2024-01-18T13:59:42.626Z,11.68
2024-01-18T14:02:09.654Z,11.15
2024-01-18T14:04:37.070Z,11.88
2024-01-18T14:07:04.825Z,11.85
2024-01-18T14:09:34.390Z,11.30
2024-01-18T14:12:01.840Z,10.65
2024-01-18T14:14:28.741Z,10.52
2024-01-18T14:16:58.763Z,12.10
2024-01-18T14:19:25.913Z,14.55
2024-01-18T14:21:53.073Z,29.85
2024-01-18T14:24:20.065Z,33.65
2024-01-18T14:26:47.733Z,17.70
2024-01-18T14:29:14.766Z,10.95
2024-01-18T14:31:42.085Z,10.85
2024-01-18T14:34:09.169Z,12.07
2024-01-18T14:36:36.305Z,12.88
2024-01-18T14:39:05.308Z,10.20
2024-01-18T14:41:33.220Z,12.88
2024-01-18T14:44:00.183Z,14.20
2024-01-18T14:46:27.162Z,16.38
2024-01-18T14:48:54.291Z,13.18
2024-01-18T14:51:21.375Z,11.70
2024-01-18T14:53:48.507Z,11.45
2024-01-18T14:56:15.354Z,12.95
2024-01-18T14:58:44.565Z,12.75
2024-01-18T15:01:11.826Z,13.20
2024-01-18T15:03:39.010Z,15.63
2024-01-18T15:06:08.203Z,13.45
2024-01-18T15:08:35.183Z,12.23
2024-01-18T15:11:02.342Z,13.95
2024-01-18T15:13:29.351Z,13.98
2024-01-18T15:15:56.523Z,12.98
2024-01-18T15:18:23.636Z,12.77
2024-01-18T15:20:50.779Z,13.55
2024-01-18T15:23:17.839Z,13.88
2024-01-18T15:25:44.834Z,13.30
2024-01-18T15:28:12.695Z,13.32
2024-01-18T15:30:39.774Z,11.98
2024-01-18T15:33:06.854Z,12.38
2024-01-18T15:35:33.899Z,13.10
2024-01-18T15:38:00.847Z,12.63
2024-01-18T15:40:27.680Z,12.02
2024-01-18T15:42:54.843Z,13.05
2024-01-18T15:45:22.150Z,19.08
2024-01-18T15:47:49.306Z,16.50
2024-01-18T15:50:16.377Z,17.02
2024-01-18T15:52:45.265Z,13.73
2024-01-18T15:55:12.673Z,11.45
2024-01-18T15:57:39.814Z,13.13
2024-01-18T16:00:09.561Z,13.13
2024-01-18T16:02:36.836Z,13.63
2024-01-18T16:05:07.132Z,12.40
2024-01-18T16:07:35.527Z,12.35
2024-01-18T16:10:05.280Z,11.82
2024-01-18T16:12:32.548Z,12.48
2024-01-18T16:14:59.809Z,12.70
2024-01-18T16:17:26.816Z,11.75
2024-01-18T16:19:53.868Z,12.48
2024-01-18T16:22:20.903Z,12.35
2024-01-18T16:24:47.833Z,13.80
2024-01-18T16:27:14.857Z,13.05
2024-01-18T16:29:54.255Z,12.05
2024-01-18T16:32:28.046Z,14.85
2024-01-18T16:34:55.224Z,13.25
2024-01-18T16:37:22.272Z,14.18
2024-01-18T16:39:50.368Z,19.15
2024-01-18T16:42:17.472Z,9.88
2024-01-18T16:44:44.446Z,15.13
2024-01-18T16:47:11.640Z,13.10
2024-01-18T16:49:38.710Z,7.82
2024-01-18T16:52:05.920Z,13.95
2024-01-18T16:54:32.982Z,4.78
2024-01-18T16:56:59.985Z,14.18
2024-01-18T16:59:26.973Z,4.03
2024-01-18T17:01:54.018Z,6.85
2024-01-18T17:04:21.033Z,5.85
2024-01-18T17:06:48.131Z,15.15
2024-01-18T17:09:15.074Z,12.32
2024-01-18T17:11:42.151Z,15.95
2024-01-18T17:14:09.192Z,10.43
2024-01-18T17:16:36.188Z,4.70
2024-01-18T17:19:04.037Z,12.65
2024-01-18T17:21:31.272Z,12.88
2024-01-18T17:23:58.206Z,4.95
2024-01-18T17:26:26.884Z,4.45
2024-01-18T17:28:54.973Z,7.07
2024-01-18T17:31:23.035Z,6.53
2024-01-18T17:33:50.762Z,5.95
2024-01-18T17:36:17.732Z,7.13
2024-01-18T17:38:44.976Z,5.97
2024-01-18T17:41:12.077Z,9.95
2024-01-18T17:43:38.965Z,6.00
2024-01-18T17:46:07.385Z,12.10
2024-01-18T17:48:37.337Z,9.98
2024-01-18T17:51:06.662Z,9.10
2024-01-18T17:53:34.072Z,7.30
2024-01-18T17:56:04.518Z,5.63
2024-01-18T17:58:33.145Z,8.40
2024-01-18T18:01:00.182Z,9.18
2024-01-18T18:03:27.765Z,6.60
2024-01-18T18:05:54.945Z,6.60
2024-01-18T18:08:22.199Z,10.57
2024-01-18T18:10:49.302Z,8.88
2024-01-18T18:13:16.269Z,8.57
2024-01-18T18:15:47.592Z,8.82
2024-01-18T18:18:18.142Z,23.35
2024-01-18T18:20:45.216Z,8.77
2024-01-18T18:23:12.357Z,9.80
2024-01-18T18:25:39.374Z,9.57
2024-01-18T18:28:06.685Z,5.95
2024-01-18T18:30:36.818Z,12.20
2024-01-18T18:33:06.884Z,6.18
2024-01-18T18:35:34.049Z,7.32
2024-01-18T18:38:01.109Z,8.63
2024-01-18T18:40:30.597Z,8.25
2024-01-18T18:42:57.570Z,6.70
2024-01-18T18:45:24.581Z,7.47
2024-01-18T18:47:52.983Z,7.28
2024-01-18T18:50:20.021Z,9.63
2024-01-18T18:52:47.633Z,8.02
2024-01-18T18:55:14.757Z,9.07
2024-01-18T18:57:41.791Z,7.72
2024-01-18T19:00:09.270Z,9.15
2024-01-18T19:02:36.398Z,14.75
2024-01-18T19:05:05.134Z,12.85
2024-01-18T19:07:32.132Z,7.05
2024-01-18T19:09:59.075Z,8.45
2024-01-18T19:12:26.382Z,15.88
2024-01-18T19:14:53.835Z,13.10
2024-01-18T19:17:21.018Z,13.80
2024-01-18T19:19:47.982Z,14.82
2024-01-18T19:22:15.042Z,11.15
2024-01-18T19:24:42.064Z,9.60
2024-01-18T19:27:09.418Z,10.75
2024-01-18T19:29:36.660Z,22.42
2024-01-18T19:32:05.116Z,19.33
2024-01-18T19:34:32.120Z,14.82
2024-01-18T19:36:59.167Z,14.10
2024-01-18T19:39:32.236Z,14.05
2024-01-18T19:42:01.947Z,14.20
2024-01-18T19:44:28.968Z,15.07
2024-01-18T19:46:55.946Z,16.67
2024-01-18T19:49:24.965Z,16.08
2024-01-18T19:51:51.991Z,15.05
2024-01-18T19:54:18.975Z,13.18
2024-01-18T19:56:46.156Z,14.23
2024-01-18T19:59:13.196Z,17.95
2024-01-18T20:01:40.144Z,14.93
2024-01-18T20:04:07.156Z,17.02
2024-01-18T20:06:34.318Z,19.80
2024-01-18T20:09:01.318Z,25.60
2024-01-18T20:11:28.793Z,16.30
2024-01-18T20:13:55.912Z,14.68
2024-01-18T20:16:22.977Z,12.50
2024-01-18T20:18:52.255Z,15.77
2024-01-18T20:21:19.769Z,13.18
2024-01-18T20:23:47.026Z,19.27
2024-01-18T20:26:16.111Z,15.35
2024-01-18T20:28:43.893Z,13.90
2024-01-18T20:31:11.346Z,14.15
2024-01-18T20:33:41.350Z,18.42
2024-01-18T20:36:08.537Z,10.90
2024-01-18T20:38:35.568Z,15.45
2024-01-18T20:41:03.120Z,18.92
2024-01-18T20:43:30.113Z,16.95
2024-01-18T20:45:57.311Z,17.13
2024-01-18T20:48:24.516Z,16.88
2024-01-18T20:50:51.715Z,19.45
2024-01-18T20:53:18.799Z,22.60
2024-01-18T20:55:45.797Z,23.75
2024-01-18T20:58:12.898Z,20.60
2024-01-18T21:00:40.772Z,18.25
2024-01-18T21:03:08.923Z,24.30
2024-01-18T21:05:35.922Z,18.48
2024-01-18T21:08:02.946Z,20.77
2024-01-18T21:10:30.042Z,37.42
2024-01-18T21:12:57.137Z,51.40
2024-01-18T21:15:24.227Z,68.55
2024-01-18T21:17:51.326Z,124.68
2024-01-18T21:20:18.346Z,46.63
2024-01-18T21:22:45.433Z,21.60
2024-01-18T21:25:12.409Z,28.88
2024-01-18T21:27:39.360Z,36.35
2024-01-18T21:30:07.086Z,54.00
2024-01-18T21:32:35.064Z,36.88
2024-01-18T21:35:02.135Z,48.50
2024-01-18T21:37:29.242Z,67.80
2024-01-18T21:39:56.229Z,70.78
2024-01-18T21:42:23.373Z,65.38
2024-01-18T21:44:50.666Z,91.53
2024-01-18T21:47:18.004Z,95.45
2024-01-18T21:49:45.501Z,59.65
2024-01-18T21:52:13.263Z,52.45
2024-01-18T21:54:40.812Z,51.22
2024-01-18T21:57:08.035Z,60.83
2024-01-18T21:59:40.057Z,63.15
2024-01-18T22:02:12.716Z,61.58
2024-01-18T22:04:40.696Z,54.17
2024-01-18T22:07:08.520Z,52.83
2024-01-18T22:09:41.826Z,36.28
2024-01-18T22:12:10.598Z,35.88
2024-01-18T22:14:37.658Z,32.30
2024-01-18T22:17:05.045Z,29.85
2024-01-18T22:19:43.130Z,30.85
2024-01-18T22:22:19.410Z,26.55
2024-01-18T22:24:46.698Z,24.02
2024-01-18T22:27:15.132Z,34.65
2024-01-18T22:29:43.106Z,26.52
2024-01-18T22:32:13.872Z,25.23
2024-01-18T22:34:42.207Z,30.67
2024-01-18T22:37:09.153Z,28.73
2024-01-18T22:39:36.096Z,26.95
2024-01-18T22:42:03.255Z,24.92
2024-01-18T22:44:30.219Z,27.98
2024-01-18T22:46:57.286Z,29.60
2024-01-18T22:49:24.404Z,22.77
2024-01-18T22:51:51.540Z,24.85
2024-01-18T22:54:18.532Z,21.52
2024-01-18T22:56:46.505Z,23.70
2024-01-18T22:59:13.684Z,31.67
2024-01-18T23:01:40.714Z,27.83
2024-01-18T23:04:07.821Z,22.08
2024-01-18T23:06:35.858Z,26.50
2024-01-18T23:09:02.919Z,28.00
2024-01-18T23:11:29.929Z,22.70
2024-01-18T23:13:58.848Z,27.70
2024-01-18T23:16:27.072Z,32.10
2024-01-18T23:18:54.614Z,27.00
2024-01-18T23:21:21.836Z,27.73
2024-01-18T23:23:51.194Z,23.33
2024-01-18T23:26:19.018Z,30.25
2024-01-18T23:28:46.121Z,34.15
2024-01-18T23:31:13.142Z,30.33
2024-01-18T23:33:40.266Z,27.45
2024-01-18T23:36:07.576Z,29.13
2024-01-18T23:38:34.590Z,25.58
2024-01-18T23:41:01.620Z,28.88
2024-01-18T23:43:28.634Z,27.00
2024-01-18T23:45:55.655Z,32.08
2024-01-18T23:48:22.756Z,27.92
2024-01-18T23:50:49.966Z,31.42
2024-01-18T23:53:17.096Z,32.22
2024-01-18T23:55:44.171Z,28.38
2024-01-18T23:58:11.173Z,26.50
